sensor_id;sensor_type;location;lat;lon;timestamp;pressure;altitude;pressure_sealevel;temperature;humidity
23223;BME280;11780;13.904;100.620;2024-02-04T00:01:49;101419.06;;;31.03;69.49
23223;BME280;11780;13.904;100.620;2024-02-04T00:04:20;101434.31;;;31.01;69.54
23223;BME280;11780;13.904;100.620;2024-02-04T00:06:50;101429.41;;;30.97;69.60
23223;BME280;11780;13.904;100.620;2024-02-04T00:09:21;101426.97;;;30.96;69.50
23223;BME280;11780;13.904;100.620;2024-02-04T00:11:52;101433.59;;;30.95;69.43
23223;BME280;11780;13.904;100.620;2024-02-04T00:14:23;101433.91;;;30.93;69.65
23223;BME280;11780;13.904;100.620;2024-02-04T00:16:53;101441.66;;;30.91;69.81
23223;BME280;11780;13.904;100.620;2024-02-04T00:19:24;101440.25;;;30.94;69.86
23223;BME280;11780;13.904;100.620;2024-02-04T00:21:54;101443.53;;;30.96;69.70
23223;BME280;11780;13.904;100.620;2024-02-04T00:24:26;101444.44;;;30.91;69.90
23223;BME280;11780;13.904;100.620;2024-02-04T00:26:57;101451.31;;;30.94;69.73
23223;BME280;11780;13.904;100.620;2024-02-04T00:29:27;101449.25;;;30.99;69.74
23223;BME280;11780;13.904;100.620;2024-02-04T00:31:58;101457.03;;;30.97;69.93
23223;BME280;11780;13.904;100.620;2024-02-04T00:34:28;101464.81;;;30.95;70.32
23223;BME280;11780;13.904;100.620;2024-02-04T00:36:59;101461.09;;;31.00;69.85
23223;BME280;11780;13.904;100.620;2024-02-04T00:39:30;101471.34;;;30.99;70.19
23223;BME280;11780;13.904;100.620;2024-02-04T00:42:00;101476.88;;;30.99;69.99
23223;BME280;11780;13.904;100.620;2024-02-04T00:44:31;101475.75;;;31.01;70.10
23223;BME280;11780;13.904;100.620;2024-02-04T00:47:02;101482.41;;;30.99;70.26
23223;BME280;11780;13.904;100.620;2024-02-04T00:49:32;101486.81;;;31.01;70.34
23223;BME280;11780;13.904;100.620;2024-02-04T00:52:03;101487.94;;;30.99;70.61
23223;BME280;11780;13.904;100.620;2024-02-04T00:54:34;101494.25;;;31.00;70.61
23223;BME280;11780;13.904;100.620;2024-02-04T00:57:06;101501.75;;;30.99;70.87
23223;BME280;11780;13.904;100.620;2024-02-04T00:59:36;101506.94;;;31.01;70.60
23223;BME280;11780;13.904;100.620;2024-02-04T01:02:07;101511.88;;;31.04;70.75
23223;BME280;11780;13.904;100.620;2024-02-04T01:04:37;101524.25;;;31.07;71.22
23223;BME280;11780;13.904;100.620;2024-02-04T01:07:08;101522.22;;;31.12;71.01
23223;BME280;11780;13.904;100.620;2024-02-04T01:09:39;101520.69;;;31.06;71.07
23223;BME280;11780;13.904;100.620;2024-02-04T01:12:09;101519.88;;;31.06;70.98
23223;BME280;11780;13.904;100.620;2024-02-04T01:14:40;101528.16;;;31.06;71.04
23223;BME280;11780;13.904;100.620;2024-02-04T01:17:10;101528.66;;;31.08;70.78
23223;BME280;11780;13.904;100.620;2024-02-04T01:19:41;101540.22;;;31.10;70.61
23223;BME280;11780;13.904;100.620;2024-02-04T01:22:11;101541.84;;;31.11;70.49
23223;BME280;11780;13.904;100.620;2024-02-04T01:24:42;101544.44;;;31.07;70.78
23223;BME280;11780;13.904;100.620;2024-02-04T01:27:12;101543.31;;;31.08;70.95
23223;BME280;11780;13.904;100.620;2024-02-04T01:29:52;101544.94;;;31.09;70.76
23223;BME280;11780;13.904;100.620;2024-02-04T01:32:23;101549.56;;;31.14;70.98
23223;BME280;11780;13.904;100.620;2024-02-04T01:34:54;101547.94;;;31.13;70.96
23223;BME280;11780;13.904;100.620;2024-02-04T01:37:24;101564.50;;;31.13;70.77
23223;BME280;11780;13.904;100.620;2024-02-04T01:39:55;101556.75;;;31.15;70.80
23223;BME280;11780;13.904;100.620;2024-02-04T01:42:25;101556.22;;;31.13;70.79
23223;BME280;11780;13.904;100.620;2024-02-04T01:44:56;101570.25;;;31.17;70.47
23223;BME280;11780;13.904;100.620;2024-02-04T01:47:26;101571.69;;;31.14;70.34
23223;BME280;11780;13.904;100.620;2024-02-04T01:49:57;101572.25;;;31.11;70.32
23223;BME280;11780;13.904;100.620;2024-02-04T01:52:28;101577.91;;;31.06;70.42
23223;BME280;11780;13.904;100.620;2024-02-04T01:55:00;101584.63;;;30.99;70.90
23223;BME280;11780;13.904;100.620;2024-02-04T01:57:32;101589.31;;;30.99;70.83
23223;BME280;11780;13.904;100.620;2024-02-04T02:00:05;101578.78;;;31.01;70.95
23223;BME280;11780;13.904;100.620;2024-02-04T02:02:40;101586.78;;;31.03;70.77
23223;BME280;11780;13.904;100.620;2024-02-04T02:05:11;101593.13;;;31.03;70.80
23223;BME280;11780;13.904;100.620;2024-02-04T02:07:41;101592.19;;;31.08;70.68
23223;BME280;11780;13.904;100.620;2024-02-04T02:10:14;101597.69;;;31.13;70.57
23223;BME280;11780;13.904;100.620;2024-02-04T02:13:00;101587.19;;;31.10;70.77
23223;BME280;11780;13.904;100.620;2024-02-04T02:15:48;101599.88;;;31.11;70.44
23223;BME280;11780;13.904;100.620;2024-02-04T02:18:27;101600.09;;;31.01;70.33
23223;BME280;11780;13.904;100.620;2024-02-04T02:23:43;101600.59;;;31.03;69.36
23223;BME280;11780;13.904;100.620;2024-02-04T02:26:20;101610.53;;;31.04;68.92
23223;BME280;11780;13.904;100.620;2024-02-04T02:28:50;101602.34;;;30.98;69.14
23223;BME280;11780;13.904;100.620;2024-02-04T02:31:21;101612.56;;;30.98;68.39
23223;BME280;11780;13.904;100.620;2024-02-04T02:34:07;101614.72;;;31.01;67.45
23223;BME280;11780;13.904;100.620;2024-02-04T02:37:43;101613.81;;;31.06;67.87
23223;BME280;11780;13.904;100.620;2024-02-04T02:39:49;101612.38;;;31.08;67.51
23223;BME280;11780;13.904;100.620;2024-02-04T02:42:26;101612.59;;;31.12;67.77
23223;BME280;11780;13.904;100.620;2024-02-04T02:44:56;101613.94;;;31.14;67.85
23223;BME280;11780;13.904;100.620;2024-02-04T02:47:29;101615.28;;;31.17;67.87
23223;BME280;11780;13.904;100.620;2024-02-04T02:50:00;101610.06;;;31.16;67.84
23223;BME280;11780;13.904;100.620;2024-02-04T02:52:31;101620.22;;;31.20;67.72
23223;BME280;11780;13.904;100.620;2024-02-04T02:55:02;101615.69;;;31.24;67.61
23223;BME280;11780;13.904;100.620;2024-02-04T02:57:32;101607.13;;;31.26;67.12
23223;BME280;11780;13.904;100.620;2024-02-04T03:00:03;101607.94;;;31.26;67.56
23223;BME280;11780;13.904;100.620;2024-02-04T03:02:35;101604.13;;;31.22;67.73
23223;BME280;11780;13.904;100.620;2024-02-04T03:05:06;101611.00;;;31.25;68.82
23223;BME280;11780;13.904;100.620;2024-02-04T03:07:36;101608.13;;;31.30;68.06
23223;BME280;11780;13.904;100.620;2024-02-04T03:10:08;101608.75;;;31.27;68.43
23223;BME280;11780;13.904;100.620;2024-02-04T03:12:38;101607.31;;;31.29;68.27
23223;BME280;11780;13.904;100.620;2024-02-04T03:15:09;101607.22;;;31.35;66.69
23223;BME280;11780;13.904;100.620;2024-02-04T03:17:39;101609.47;;;31.33;66.62
23223;BME280;11780;13.904;100.620;2024-02-04T03:20:10;101597.91;;;31.31;66.45
23223;BME280;11780;13.904;100.620;2024-02-04T03:22:41;101602.69;;;31.39;66.44
23223;BME280;11780;13.904;100.620;2024-02-04T03:25:12;101596.97;;;31.35;66.15
23223;BME280;11780;13.904;100.620;2024-02-04T03:27:42;101596.78;;;31.32;66.25
23223;BME280;11780;13.904;100.620;2024-02-04T03:30:15;101590.94;;;31.33;66.00
23223;BME280;11780;13.904;100.620;2024-02-04T03:32:45;101594.00;;;31.32;66.20
23223;BME280;11780;13.904;100.620;2024-02-04T03:35:16;101592.28;;;31.36;65.74
23223;BME280;11780;13.904;100.620;2024-02-04T03:37:46;101585.31;;;31.38;64.98
23223;BME280;11780;13.904;100.620;2024-02-04T03:40:17;101587.97;;;31.43;64.30
23223;BME280;11780;13.904;100.620;2024-02-04T03:42:49;101581.72;;;31.38;64.06
23223;BME280;11780;13.904;100.620;2024-02-04T03:45:19;101578.75;;;31.34;64.14
23223;BME280;11780;13.904;100.620;2024-02-04T03:47:50;101576.19;;;31.38;64.10
23223;BME280;11780;13.904;100.620;2024-02-04T03:50:20;101562.47;;;31.33;63.90
23223;BME280;11780;13.904;100.620;2024-02-04T03:52:51;101563.81;;;31.35;63.40
23223;BME280;11780;13.904;100.620;2024-02-04T03:55:23;101565.63;;;31.40;63.08
23223;BME280;11780;13.904;100.620;2024-02-04T03:57:55;101553.44;;;31.41;62.92
23223;BME280;11780;13.904;100.620;2024-02-04T04:00:27;101553.78;;;31.39;62.81
23223;BME280;11780;13.904;100.620;2024-02-04T04:02:57;101550.06;;;31.44;62.88
23223;BME280;11780;13.904;100.620;2024-02-04T04:05:28;101540.66;;;31.45;63.02
23223;BME280;11780;13.904;100.620;2024-02-04T04:07:58;101543.63;;;31.49;62.58
23223;BME280;11780;13.904;100.620;2024-02-04T04:10:29;101529.50;;;31.50;62.49
23223;BME280;11780;13.904;100.620;2024-02-04T04:12:59;101524.59;;;31.47;62.65
23223;BME280;11780;13.904;100.620;2024-02-04T04:15:30;101518.72;;;31.49;63.05
23223;BME280;11780;13.904;100.620;2024-02-04T04:18:00;101506.56;;;31.50;63.02
23223;BME280;11780;13.904;100.620;2024-02-04T04:20:31;101513.19;;;31.49;62.91
23223;BME280;11780;13.904;100.620;2024-02-04T04:23:01;101502.84;;;31.54;63.02
23223;BME280;11780;13.904;100.620;2024-02-04T04:25:32;101501.94;;;31.59;62.94
23223;BME280;11780;13.904;100.620;2024-02-04T04:28:03;101496.28;;;31.64;61.37
23223;BME280;11780;13.904;100.620;2024-02-04T04:30:34;101491.56;;;31.65;61.20
23223;BME280;11780;13.904;100.620;2024-02-04T04:33:04;101480.81;;;31.63;60.18
23223;BME280;11780;13.904;100.620;2024-02-04T04:35:36;101484.09;;;31.65;60.11
23223;BME280;11780;13.904;100.620;2024-02-04T04:38:06;101485.03;;;31.61;60.63
23223;BME280;11780;13.904;100.620;2024-02-04T04:40:37;101478.75;;;31.69;61.22
23223;BME280;11780;13.904;100.620;2024-02-04T04:43:07;101472.63;;;31.72;61.25
23223;BME280;11780;13.904;100.620;2024-02-04T04:45:37;101478.66;;;31.74;61.01
23223;BME280;11780;13.904;100.620;2024-02-04T04:48:08;101474.16;;;31.78;60.41
23223;BME280;11780;13.904;100.620;2024-02-04T04:50:39;101474.66;;;31.80;60.31
23223;BME280;11780;13.904;100.620;2024-02-04T04:53:09;101465.09;;;31.86;60.44
23223;BME280;11780;13.904;100.620;2024-02-04T04:55:39;101451.25;;;31.86;59.90
23223;BME280;11780;13.904;100.620;2024-02-04T04:58:10;101451.91;;;31.83;59.33
23223;BME280;11780;13.904;100.620;2024-02-04T05:00:40;101441.97;;;31.82;59.95
23223;BME280;11780;13.904;100.620;2024-02-04T05:03:11;101437.25;;;31.83;59.87
23223;BME280;11780;13.904;100.620;2024-02-04T05:05:41;101430.25;;;31.85;59.22
23223;BME280;11780;13.904;100.620;2024-02-04T05:08:14;101424.09;;;31.88;58.58
23223;BME280;11780;13.904;100.620;2024-02-04T05:10:45;101421.84;;;31.91;58.15
23223;BME280;11780;13.904;100.620;2024-02-04T05:13:15;101410.09;;;31.85;58.56
23223;BME280;11780;13.904;100.620;2024-02-04T05:15:45;101416.13;;;31.87;58.98
23223;BME280;11780;13.904;100.620;2024-02-04T05:18:16;101413.53;;;31.91;58.87
23223;BME280;11780;13.904;100.620;2024-02-04T05:20:48;101406.06;;;31.91;58.40
23223;BME280;11780;13.904;100.620;2024-02-04T05:23:18;101403.16;;;31.96;58.44
23223;BME280;11780;13.904;100.620;2024-02-04T05:25:49;101399.94;;;32.03;57.97
23223;BME280;11780;13.904;100.620;2024-02-04T05:28:19;101389.88;;;32.07;57.13
23223;BME280;11780;13.904;100.620;2024-02-04T05:30:49;101382.19;;;32.04;56.90
23223;BME280;11780;13.904;100.620;2024-02-04T05:33:20;101380.56;;;32.03;57.01
23223;BME280;11780;13.904;100.620;2024-02-04T05:35:50;101370.00;;;32.05;57.29
23223;BME280;11780;13.904;100.620;2024-02-04T05:38:24;101373.91;;;32.04;56.70
23223;BME280;11780;13.904;100.620;2024-02-04T05:40:54;101361.84;;;32.00;57.47
23223;BME280;11780;13.904;100.620;2024-02-04T05:43:25;101369.50;;;32.03;57.02
23223;BME280;11780;13.904;100.620;2024-02-04T05:45:55;101358.63;;;32.07;56.97
23223;BME280;11780;13.904;100.620;2024-02-04T05:48:25;101346.72;;;32.06;57.53
23223;BME280;11780;13.904;100.620;2024-02-04T05:50:56;101340.25;;;32.11;57.69
23223;BME280;11780;13.904;100.620;2024-02-04T05:53:26;101333.91;;;32.10;57.68
23223;BME280;11780;13.904;100.620;2024-02-04T05:55:57;101330.84;;;32.20;57.42
23223;BME280;11780;13.904;100.620;2024-02-04T05:58:27;101329.03;;;32.16;57.45
23223;BME280;11780;13.904;100.620;2024-02-04T06:00:57;101325.13;;;32.17;57.25
23223;BME280;11780;13.904;100.620;2024-02-04T06:03:28;101325.31;;;32.20;57.74
23223;BME280;11780;13.904;100.620;2024-02-04T06:05:58;101330.22;;;32.24;56.89
23223;BME280;11780;13.904;100.620;2024-02-04T06:08:29;101320.84;;;32.33;55.91
23223;BME280;11780;13.904;100.620;2024-02-04T06:11:00;101314.66;;;32.37;55.15
23223;BME280;11780;13.904;100.620;2024-02-04T06:13:30;101310.56;;;32.34;55.20
23223;BME280;11780;13.904;100.620;2024-02-04T06:16:01;101301.63;;;32.37;54.94
23223;BME280;11780;13.904;100.620;2024-02-04T06:18:31;101293.69;;;32.44;54.37
23223;BME280;11780;13.904;100.620;2024-02-04T06:21:02;101282.78;;;32.57;53.13
23223;BME280;11780;13.904;100.620;2024-02-04T06:23:33;101274.59;;;32.43;54.16
23223;BME280;11780;13.904;100.620;2024-02-04T06:26:04;101267.16;;;32.52;53.26
23223;BME280;11780;13.904;100.620;2024-02-04T06:28:35;101256.69;;;32.40;53.47
23223;BME280;11780;13.904;100.620;2024-02-04T06:31:08;101250.69;;;32.56;52.57
23223;BME280;11780;13.904;100.620;2024-02-04T06:33:39;101252.97;;;32.62;52.33
23223;BME280;11780;13.904;100.620;2024-02-04T06:36:10;101245.00;;;32.78;50.98
23223;BME280;11780;13.904;100.620;2024-02-04T06:38:40;101233.91;;;32.78;50.83
23223;BME280;11780;13.904;100.620;2024-02-04T06:41:11;101230.81;;;32.71;51.33
23223;BME280;11780;13.904;100.620;2024-02-04T06:43:41;101225.63;;;32.61;51.74
23223;BME280;11780;13.904;100.620;2024-02-04T06:46:12;101222.50;;;32.54;52.69
23223;BME280;11780;13.904;100.620;2024-02-04T06:48:42;101222.34;;;32.50;52.91
23223;BME280;11780;13.904;100.620;2024-02-04T06:51:12;101212.06;;;32.50;53.02
23223;BME280;11780;13.904;100.620;2024-02-04T06:53:43;101212.72;;;32.47;53.28
23223;BME280;11780;13.904;100.620;2024-02-04T06:56:13;101201.63;;;32.47;52.96
23223;BME280;11780;13.904;100.620;2024-02-04T06:58:44;101203.25;;;32.48;53.18
23223;BME280;11780;13.904;100.620;2024-02-04T07:01:14;101195.94;;;32.44;53.32
23223;BME280;11780;13.904;100.620;2024-02-04T07:03:45;101188.97;;;32.46;52.79
23223;BME280;11780;13.904;100.620;2024-02-04T07:06:15;101192.19;;;32.48;53.56
23223;BME280;11780;13.904;100.620;2024-02-04T07:08:46;101184.56;;;32.45;53.92
23223;BME280;11780;13.904;100.620;2024-02-04T07:11:16;101170.22;;;32.52;52.39
23223;BME280;11780;13.904;100.620;2024-02-04T07:13:46;101170.22;;;32.52;52.71
23223;BME280;11780;13.904;100.620;2024-02-04T07:16:18;101164.69;;;32.52;52.71
23223;BME280;11780;13.904;100.620;2024-02-04T07:18:48;101158.81;;;32.54;52.61
23223;BME280;11780;13.904;100.620;2024-02-04T07:21:19;101154.41;;;32.53;52.78
23223;BME280;11780;13.904;100.620;2024-02-04T07:23:49;101148.88;;;32.53;52.42
23223;BME280;11780;13.904;100.620;2024-02-04T07:26:20;101155.06;;;32.49;53.00
23223;BME280;11780;13.904;100.620;2024-02-04T07:28:50;101154.09;;;32.54;52.90
23223;BME280;11780;13.904;100.620;2024-02-04T07:31:20;101150.66;;;32.48;52.84
23223;BME280;11780;13.904;100.620;2024-02-04T07:33:52;101141.22;;;32.49;52.10
23223;BME280;11780;13.904;100.620;2024-02-04T07:36:22;101143.50;;;32.56;51.05
23223;BME280;11780;13.904;100.620;2024-02-04T07:38:53;101139.28;;;32.50;52.03
23223;BME280;11780;13.904;100.620;2024-02-04T07:41:23;101134.38;;;32.64;51.15
23223;BME280;11780;13.904;100.620;2024-02-04T07:43:54;101131.44;;;32.70;51.05
23223;BME280;11780;13.904;100.620;2024-02-04T07:46:24;101132.75;;;32.63;51.26
23223;BME280;11780;13.904;100.620;2024-02-04T07:48:55;101131.28;;;32.57;51.72
23223;BME280;11780;13.904;100.620;2024-02-04T07:51:25;101128.50;;;32.57;51.45
23223;BME280;11780;13.904;100.620;2024-02-04T07:53:56;101120.03;;;32.54;51.67
23223;BME280;11780;13.904;100.620;2024-02-04T07:56:26;101119.88;;;32.59;51.01
23223;BME280;11780;13.904;100.620;2024-02-04T07:58:56;101116.63;;;32.57;50.96
23223;BME280;11780;13.904;100.620;2024-02-04T08:01:27;101110.94;;;32.53;52.08
23223;BME280;11780;13.904;100.620;2024-02-04T08:03:58;101109.63;;;32.50;51.93
23223;BME280;11780;13.904;100.620;2024-02-04T08:06:30;101110.25;;;32.56;51.90
23223;BME280;11780;13.904;100.620;2024-02-04T08:09:00;101112.88;;;32.53;51.84
23223;BME280;11780;13.904;100.620;2024-02-04T08:11:31;101107.66;;;32.60;51.65
23223;BME280;11780;13.904;100.620;2024-02-04T08:14:01;101104.06;;;32.50;52.13
23223;BME280;11780;13.904;100.620;2024-02-04T08:16:32;101099.84;;;32.62;51.20
23223;BME280;11780;13.904;100.620;2024-02-04T12:39:31;101206.22;;;31.94;63.18
23223;BME280;11780;13.904;100.620;2024-02-04T12:42:03;101207.53;;;31.97;63.06
23223;BME280;11780;13.904;100.620;2024-02-04T12:44:34;101209.66;;;32.00;62.74
23223;BME280;11780;13.904;100.620;2024-02-04T12:47:05;101211.78;;;32.03;62.82
23223;BME280;11780;13.904;100.620;2024-02-04T12:49:35;101220.28;;;32.07;62.84
23223;BME280;11780;13.904;100.620;2024-02-04T12:52:07;101227.09;;;32.09;62.94
23223;BME280;11780;13.904;100.620;2024-02-04T12:54:42;101233.13;;;32.11;63.06
23223;BME280;11780;13.904;100.620;2024-02-04T12:57:24;101228.59;;;32.15;63.42
23223;BME280;11780;13.904;100.620;2024-02-04T13:00:04;101238.84;;;32.15;63.27
23223;BME280;11780;13.904;100.620;2024-02-04T13:02:38;101242.28;;;32.20;63.23
23223;BME280;11780;13.904;100.620;2024-02-04T13:05:09;101249.94;;;32.24;62.88
23223;BME280;11780;13.904;100.620;2024-02-04T13:07:40;101250.13;;;32.27;63.12
23223;BME280;11780;13.904;100.620;2024-02-04T13:10:13;101246.41;;;32.32;62.97
23223;BME280;11780;13.904;100.620;2024-02-04T13:12:44;101254.69;;;32.32;63.21
23223;BME280;11780;13.904;100.620;2024-02-04T13:15:15;101259.94;;;32.33;63.14
23223;BME280;11780;13.904;100.620;2024-02-04T13:17:45;101253.25;;;32.34;63.30
23223;BME280;11780;13.904;100.620;2024-02-04T13:20:16;101269.03;;;32.34;63.38
23223;BME280;11780;13.904;100.620;2024-02-04T13:22:46;101261.06;;;32.32;63.25
23223;BME280;11780;13.904;100.620;2024-02-04T13:25:17;101266.78;;;32.36;63.40
23223;BME280;11780;13.904;100.620;2024-02-04T13:27:51;101273.44;;;32.35;63.43
23223;BME280;11780;13.904;100.620;2024-02-04T13:30:21;101265.97;;;32.36;63.31
23223;BME280;11780;13.904;100.620;2024-02-04T13:32:52;101274.91;;;32.32;63.21
23223;BME280;11780;13.904;100.620;2024-02-04T13:35:23;101278.47;;;32.33;63.56
23223;BME280;11780;13.904;100.620;2024-02-04T13:37:54;101279.81;;;32.36;63.65
23223;BME280;11780;13.904;100.620;2024-02-04T13:40:24;101281.09;;;32.38;63.35
23223;BME280;11780;13.904;100.620;2024-02-04T13:42:55;101284.03;;;32.42;63.49
23223;BME280;11780;13.904;100.620;2024-02-04T13:45:25;101293.31;;;32.37;63.64
23223;BME280;11780;13.904;100.620;2024-02-04T13:47:56;101288.41;;;32.34;63.94
23223;BME280;11780;13.904;100.620;2024-02-04T13:50:26;101291.19;;;32.34;63.60
23223;BME280;11780;13.904;100.620;2024-02-04T13:52:57;101291.53;;;32.41;63.69
23223;BME280;11780;13.904;100.620;2024-02-04T13:55:28;101301.13;;;32.35;63.97
23223;BME280;11780;13.904;100.620;2024-02-04T13:57:59;101295.91;;;32.33;63.69
23223;BME280;11780;13.904;100.620;2024-02-04T14:00:30;101311.22;;;32.31;63.97
23223;BME280;11780;13.904;100.620;2024-02-04T14:03:02;101313.34;;;32.34;63.87
23223;BME280;11780;13.904;100.620;2024-02-04T14:05:32;101310.06;;;32.32;64.15
23223;BME280;11780;13.904;100.620;2024-02-04T14:08:03;101314.81;;;32.31;63.78
23223;BME280;11780;13.904;100.620;2024-02-04T14:10:35;101312.38;;;32.30;64.19
23223;BME280;11780;13.904;100.620;2024-02-04T14:13:06;101319.53;;;32.31;64.01
23223;BME280;11780;13.904;100.620;2024-02-04T14:15:37;101316.44;;;32.32;64.30
23223;BME280;11780;13.904;100.620;2024-02-04T14:18:08;101327.34;;;32.29;64.67
23223;BME280;11780;13.904;100.620;2024-02-04T14:20:39;101324.56;;;32.29;65.06
23223;BME280;11780;13.904;100.620;2024-02-04T14:23:09;101324.66;;;32.24;64.62
23223;BME280;11780;13.904;100.620;2024-02-04T14:25:39;101330.22;;;32.24;64.93
23223;BME280;11780;13.904;100.620;2024-02-04T14:28:10;101333.31;;;32.22;65.11
23223;BME280;11780;13.904;100.620;2024-02-04T14:30:41;101325.47;;;32.24;65.31
23223;BME280;11780;13.904;100.620;2024-02-04T14:33:11;101335.88;;;32.18;65.04
23223;BME280;11780;13.904;100.620;2024-02-04T14:35:41;101336.22;;;32.17;65.23
23223;BME280;11780;13.904;100.620;2024-02-04T14:38:12;101339.31;;;32.15;65.31
23223;BME280;11780;13.904;100.620;2024-02-04T14:40:44;101346.44;;;32.16;65.31
23223;BME280;11780;13.904;100.620;2024-02-04T14:43:15;101345.13;;;32.14;65.34
23223;BME280;11780;13.904;100.620;2024-02-04T14:45:47;101338.31;;;32.11;65.25
23223;BME280;11780;13.904;100.620;2024-02-04T14:48:18;101333.78;;;32.15;65.40
23223;BME280;11780;13.904;100.620;2024-02-04T14:50:49;101341.06;;;32.11;65.33
23223;BME280;11780;13.904;100.620;2024-02-04T14:53:21;101340.44;;;32.14;65.51
23223;BME280;11780;13.904;100.620;2024-02-04T14:55:52;101343.84;;;32.11;65.50
23223;BME280;11780;13.904;100.620;2024-02-04T14:58:25;101344.97;;;32.10;65.59
23223;BME280;11780;13.904;100.620;2024-02-04T15:00:56;101348.88;;;32.09;65.60
23223;BME280;11780;13.904;100.620;2024-02-04T15:03:28;101353.56;;;32.09;65.74
23223;BME280;11780;13.904;100.620;2024-02-04T15:05:58;101361.06;;;32.08;65.57
23223;BME280;11780;13.904;100.620;2024-02-04T15:08:29;101360.91;;;32.04;65.58
23223;BME280;11780;13.904;100.620;2024-02-04T15:11:00;101356.53;;;32.12;65.53
23223;BME280;11780;13.904;100.620;2024-02-04T15:13:30;101362.25;;;32.16;65.63
23223;BME280;11780;13.904;100.620;2024-02-04T15:16:01;101367.97;;;32.19;65.49
23223;BME280;11780;13.904;100.620;2024-02-04T15:18:32;101373.00;;;32.17;65.47
23223;BME280;11780;13.904;100.620;2024-02-04T15:21:03;101380.31;;;32.13;65.71
23223;BME280;11780;13.904;100.620;2024-02-04T15:23:34;101388.13;;;32.11;66.05
23223;BME280;11780;13.904;100.620;2024-02-04T15:26:07;101389.75;;;32.12;65.99
23223;BME280;11780;13.904;100.620;2024-02-04T15:28:44;101393.03;;;32.14;66.11
23223;BME280;11780;13.904;100.620;2024-02-04T15:31:18;101399.69;;;32.13;66.13
23223;BME280;11780;13.904;100.620;2024-02-04T15:33:49;101401.00;;;32.16;65.86
23223;BME280;11780;13.904;100.620;2024-02-04T15:36:19;101404.09;;;32.14;65.90
23223;BME280;11780;13.904;100.620;2024-02-04T15:38:50;101404.56;;;32.16;66.17
23223;BME280;11780;13.904;100.620;2024-02-04T15:41:20;101409.63;;;32.14;65.99
23223;BME280;11780;13.904;100.620;2024-02-04T15:43:53;101416.16;;;32.18;65.92
23223;BME280;11780;13.904;100.620;2024-02-04T15:46:24;101413.38;;;32.18;66.29
23223;BME280;11780;13.904;100.620;2024-02-04T15:48:55;101406.72;;;32.19;66.00
23223;BME280;11780;13.904;100.620;2024-02-04T15:51:27;101415.00;;;32.19;66.23
23223;BME280;11780;13.904;100.620;2024-02-04T15:53:59;101415.63;;;32.16;65.95
23223;BME280;11780;13.904;100.620;2024-02-04T15:56:33;101421.69;;;32.18;66.28
23223;BME280;11780;13.904;100.620;2024-02-04T15:59:08;101412.75;;;32.22;66.29
23223;BME280;11780;13.904;100.620;2024-02-04T16:01:40;101411.75;;;32.17;65.97
23223;BME280;11780;13.904;100.620;2024-02-04T16:10:21;101411.25;;;32.15;65.92
23223;BME280;11780;13.904;100.620;2024-02-04T16:12:58;101411.25;;;32.15;65.93
23223;BME280;11780;13.904;100.620;2024-02-04T16:15:30;101408.50;;;32.15;65.97
23223;BME280;11780;13.904;100.620;2024-02-04T16:18:00;101401.63;;;32.13;65.79
23223;BME280;11780;13.904;100.620;2024-02-04T16:23:32;101401.44;;;32.09;65.81
23223;BME280;11780;13.904;100.620;2024-02-04T16:26:11;101400.44;;;32.05;66.23
23223;BME280;11780;13.904;100.620;2024-02-04T16:28:55;101402.69;;;32.03;65.92
23223;BME280;11780;13.904;100.620;2024-02-04T16:31:34;101409.88;;;32.04;66.16
23223;BME280;11780;13.904;100.620;2024-02-04T16:34:37;101399.31;;;32.06;66.25
23223;BME280;11780;13.904;100.620;2024-02-04T16:37:50;101404.84;;;32.06;66.60
23223;BME280;11780;13.904;100.620;2024-02-04T16:40:29;101402.41;;;32.04;66.69
23223;BME280;11780;13.904;100.620;2024-02-04T16:43:17;101398.81;;;32.04;66.63
23223;BME280;11780;13.904;100.620;2024-02-04T16:46:16;101396.03;;;32.04;67.01
23223;BME280;11780;13.904;100.620;2024-02-04T16:49:14;101399.31;;;32.06;66.75
23223;BME280;11780;13.904;100.620;2024-02-04T16:51:47;101393.91;;;32.01;67.20
23223;BME280;11780;13.904;100.620;2024-02-04T16:54:17;101397.16;;;32.03;66.95
23223;BME280;11780;13.904;100.620;2024-02-04T16:56:50;101395.53;;;32.02;66.99
23223;BME280;11780;13.904;100.620;2024-02-04T16:59:20;101395.88;;;32.00;67.21
23223;BME280;11780;13.904;100.620;2024-02-04T17:01:51;101399.44;;;32.01;66.98
23223;BME280;11780;13.904;100.620;2024-02-04T17:04:22;101398.63;;;32.00;66.92
23223;BME280;11780;13.904;100.620;2024-02-04T17:06:53;101401.91;;;32.02;67.11
23223;BME280;11780;13.904;100.620;2024-02-04T17:09:24;101404.16;;;32.00;66.76
23223;BME280;11780;13.904;100.620;2024-02-04T17:11:57;101397.16;;;32.03;66.82
23223;BME280;11780;13.904;100.620;2024-02-04T17:14:29;101393.91;;;32.01;66.77
23223;BME280;11780;13.904;100.620;2024-02-04T17:22:15;101390.31;;;32.00;66.54
23223;BME280;11780;13.904;100.620;2024-02-04T17:24:50;101392.91;;;31.97;66.75
23223;BME280;11780;13.904;100.620;2024-02-04T17:27:21;101394.34;;;31.94;66.75
23223;BME280;11780;13.904;100.620;2024-02-04T17:30:00;101388.00;;;31.94;66.92
23223;BME280;11780;13.904;100.620;2024-02-04T17:32:41;101384.91;;;31.95;67.08